sensor_id;sensor_type;location;lat;lon;timestamp;P1;durP1;ratioP1;P2;durP2;ratioP2
74291;SDS011;62687;55.738;37.516;2022-08-11T00:02:16;5.10;;;1.15;;
74291;SDS011;62687;55.738;37.516;2022-08-11T00:04:48;2.92;;;1.33;;
74291;SDS011;62687;55.738;37.516;2022-08-11T00:07:14;4.50;;;1.30;;
74291;SDS011;62687;55.738;37.516;2022-08-11T00:09:40;6.28;;;1.90;;
74291;SDS011;62687;55.738;37.516;2022-08-11T00:12:13;6.03;;;1.52;;
74291;SDS011;62687;55.738;37.516;2022-08-11T00:14:39;7.93;;;1.33;;
74291;SDS011;62687;55.738;37.516;2022-08-11T00:17:09;7.20;;;1.42;;
74291;SDS011;62687;55.738;37.516;2022-08-11T00:19:37;4.55;;;1.08;;
74291;SDS011;62687;55.738;37.516;2022-08-11T00:22:03;8.65;;;1.77;;
74291;SDS011;62687;55.738;37.516;2022-08-11T00:24:34;4.60;;;1.40;;
74291;SDS011;62687;55.738;37.516;2022-08-11T00:27:01;10.75;;;1.58;;
74291;SDS011;62687;55.738;37.516;2022-08-11T00:29:27;6.45;;;1.80;;
74291;SDS011;62687;55.738;37.516;2022-08-11T00:31:53;3.80;;;1.02;;
74291;SDS011;62687;55.738;37.516;2022-08-11T00:34:21;7.80;;;1.52;;
74291;SDS011;62687;55.738;37.516;2022-08-11T00:36:49;6.55;;;1.52;;
74291;SDS011;62687;55.738;37.516;2022-08-11T00:39:16;7.35;;;1.70;;
74291;SDS011;62687;55.738;37.516;2022-08-11T00:41:56;8.10;;;1.30;;
74291;SDS011;62687;55.738;37.516;2022-08-11T00:44:27;4.55;;;1.40;;
74291;SDS011;62687;55.738;37.516;2022-08-11T01:26:13;6.90;;;1.25;;
74291;SDS011;62687;55.738;37.516;2022-08-11T01:31:20;7.63;;;1.80;;
74291;SDS011;62687;55.738;37.516;2022-08-11T01:39:08;5.03;;;1.38;;
74291;SDS011;62687;55.738;37.516;2022-08-11T01:44:34;8.77;;;1.65;;
74291;SDS011;62687;55.738;37.516;2022-08-11T01:47:30;8.82;;;1.40;;
74291;SDS011;62687;55.738;37.516;2022-08-11T01:57:49;5.65;;;1.33;;
74291;SDS011;62687;55.738;37.516;2022-08-11T02:00:21;6.63;;;1.35;;
74291;SDS011;62687;55.738;37.516;2022-08-11T02:03:00;3.50;;;1.48;;
74291;SDS011;62687;55.738;37.516;2022-08-11T02:05:51;4.68;;;1.35;;
74291;SDS011;62687;55.738;37.516;2022-08-11T02:11:31;13.48;;;1.80;;
74291;SDS011;62687;55.738;37.516;2022-08-11T02:22:14;7.30;;;1.90;;
74291;SDS011;62687;55.738;37.516;2022-08-11T02:25:01;4.63;;;1.33;;
74291;SDS011;62687;55.738;37.516;2022-08-11T02:27:42;7.85;;;1.48;;
74291;SDS011;62687;55.738;37.516;2022-08-11T02:30:10;12.10;;;1.90;;
74291;SDS011;62687;55.738;37.516;2022-08-11T02:35:27;6.45;;;1.60;;
74291;SDS011;62687;55.738;37.516;2022-08-11T02:38:15;4.75;;;1.42;;
74291;SDS011;62687;55.738;37.516;2022-08-11T02:40:52;9.18;;;1.50;;
74291;SDS011;62687;55.738;37.516;2022-08-11T02:45:51;7.15;;;1.67;;
74291;SDS011;62687;55.738;37.516;2022-08-11T02:48:32;3.42;;;1.60;;
74291;SDS011;62687;55.738;37.516;2022-08-11T02:56:49;4.47;;;1.70;;
74291;SDS011;62687;55.738;37.516;2022-08-11T03:02:12;9.20;;;1.40;;
74291;SDS011;62687;55.738;37.516;2022-08-11T03:04:42;5.22;;;1.70;;
74291;SDS011;62687;55.738;37.516;2022-08-11T03:09:45;6.22;;;1.67;;
74291;SDS011;62687;55.738;37.516;2022-08-11T03:33:28;6.13;;;1.58;;
74291;SDS011;62687;55.738;37.516;2022-08-11T03:39:06;7.60;;;1.70;;
74291;SDS011;62687;55.738;37.516;2022-08-11T03:44:19;9.43;;;2.17;;
74291;SDS011;62687;55.738;37.516;2022-08-11T03:52:25;6.40;;;1.85;;
74291;SDS011;62687;55.738;37.516;2022-08-11T03:57:45;6.22;;;1.50;;
74291;SDS011;62687;55.738;37.516;2022-08-11T04:02:56;7.85;;;1.77;;
74291;SDS011;62687;55.738;37.516;2022-08-11T04:08:39;8.38;;;2.50;;
74291;SDS011;62687;55.738;37.516;2022-08-11T04:10:53;6.75;;;2.10;;
74291;SDS011;62687;55.738;37.516;2022-08-11T04:39:42;8.77;;;2.97;;
74291;SDS011;62687;55.738;37.516;2022-08-11T04:56:42;5.65;;;2.67;;
74291;SDS011;62687;55.738;37.516;2022-08-11T05:12:50;9.68;;;2.60;;
74291;SDS011;62687;55.738;37.516;2022-08-11T05:15:28;14.63;;;2.70;;
74291;SDS011;62687;55.738;37.516;2022-08-11T05:18:19;10.20;;;4.43;;
74291;SDS011;62687;55.738;37.516;2022-08-11T05:21:06;15.05;;;3.78;;
74291;SDS011;62687;55.738;37.516;2022-08-11T05:24:15;11.60;;;3.40;;
74291;SDS011;62687;55.738;37.516;2022-08-11T05:26:56;16.45;;;2.78;;
74291;SDS011;62687;55.738;37.516;2022-08-11T05:29:45;13.75;;;3.13;;
74291;SDS011;62687;55.738;37.516;2022-08-11T05:32:32;8.05;;;2.40;;
74291;SDS011;62687;55.738;37.516;2022-08-11T05:35:22;14.20;;;3.45;;
74291;SDS011;62687;55.738;37.516;2022-08-11T05:37:50;9.45;;;2.92;;
74291;SDS011;62687;55.738;37.516;2022-08-11T05:40:34;8.95;;;2.70;;
74291;SDS011;62687;55.738;37.516;2022-08-11T05:43:18;10.57;;;2.65;;
74291;SDS011;62687;55.738;37.516;2022-08-11T05:48:32;13.50;;;3.13;;
74291;SDS011;62687;55.738;37.516;2022-08-11T05:51:17;9.90;;;2.92;;
74291;SDS011;62687;55.738;37.516;2022-08-11T05:54:02;13.32;;;3.65;;
74291;SDS011;62687;55.738;37.516;2022-08-11T05:56:48;8.65;;;3.40;;
74291;SDS011;62687;55.738;37.516;2022-08-11T05:59:17;8.43;;;2.33;;
74291;SDS011;62687;55.738;37.516;2022-08-11T06:01:43;6.68;;;2.00;;
74291;SDS011;62687;55.738;37.516;2022-08-11T06:04:15;7.05;;;2.08;;
74291;SDS011;62687;55.738;37.516;2022-08-11T06:06:45;12.07;;;3.30;;
74291;SDS011;62687;55.738;37.516;2022-08-11T06:09:19;7.43;;;2.28;;
74291;SDS011;62687;55.738;37.516;2022-08-11T06:11:45;8.48;;;2.90;;
74291;SDS011;62687;55.738;37.516;2022-08-11T06:14:12;6.68;;;1.88;;
74291;SDS011;62687;55.738;37.516;2022-08-11T06:16:42;11.98;;;1.83;;
74291;SDS011;62687;55.738;37.516;2022-08-11T06:19:11;10.07;;;3.42;;
74291;SDS011;62687;55.738;37.516;2022-08-11T06:21:42;8.93;;;2.10;;
74291;SDS011;62687;55.738;37.516;2022-08-11T06:24:15;14.07;;;2.92;;
74291;SDS011;62687;55.738;37.516;2022-08-11T06:26:40;49.30;;;5.80;;
74291;SDS011;62687;55.738;37.516;2022-08-11T06:29:11;19.25;;;2.88;;
74291;SDS011;62687;55.738;37.516;2022-08-11T06:31:59;9.25;;;1.80;;
74291;SDS011;62687;55.738;37.516;2022-08-11T06:34:31;80.90;;;9.00;;
74291;SDS011;62687;55.738;37.516;2022-08-11T06:42:05;7.35;;;1.67;;
74291;SDS011;62687;55.738;37.516;2022-08-11T06:47:17;8.02;;;2.00;;
74291;SDS011;62687;55.738;37.516;2022-08-11T06:49:45;10.85;;;1.83;;
74291;SDS011;62687;55.738;37.516;2022-08-11T06:52:31;7.38;;;1.80;;
74291;SDS011;62687;55.738;37.516;2022-08-11T06:54:59;16.42;;;2.53;;
74291;SDS011;62687;55.738;37.516;2022-08-11T06:57:33;10.48;;;3.22;;
74291;SDS011;62687;55.738;37.516;2022-08-11T07:00:18;53.13;;;5.88;;
74291;SDS011;62687;55.738;37.516;2022-08-11T07:05:22;10.25;;;2.00;;
74291;SDS011;62687;55.738;37.516;2022-08-11T07:13:36;27.67;;;3.08;;
74291;SDS011;62687;55.738;37.516;2022-08-11T07:16:25;6.15;;;1.70;;
74291;SDS011;62687;55.738;37.516;2022-08-11T07:19:02;8.32;;;1.80;;
74291;SDS011;62687;55.738;37.516;2022-08-11T07:21:47;4.28;;;1.60;;
74291;SDS011;62687;55.738;37.516;2022-08-11T07:24:36;3.88;;;1.60;;
74291;SDS011;62687;55.738;37.516;2022-08-11T07:27:20;3.38;;;1.10;;
74291;SDS011;62687;55.738;37.516;2022-08-11T07:30:07;6.18;;;1.73;;
74291;SDS011;62687;55.738;37.516;2022-08-11T07:32:40;5.47;;;2.05;;
74291;SDS011;62687;55.738;37.516;2022-08-11T07:35:09;28.48;;;3.40;;
74291;SDS011;62687;55.738;37.516;2022-08-11T07:37:38;17.80;;;2.45;;
74291;SDS011;62687;55.738;37.516;2022-08-11T07:40:05;26.75;;;3.17;;
74291;SDS011;62687;55.738;37.516;2022-08-11T07:42:32;78.43;;;8.35;;
74291;SDS011;62687;55.738;37.516;2022-08-11T07:45:03;195.20;;;18.50;;
74291;SDS011;62687;55.738;37.516;2022-08-11T07:47:55;113.00;;;10.23;;
74291;SDS011;62687;55.738;37.516;2022-08-11T07:50:40;44.60;;;5.00;;
74291;SDS011;62687;55.738;37.516;2022-08-11T07:53:25;66.18;;;6.18;;
74291;SDS011;62687;55.738;37.516;2022-08-11T07:55:52;7.20;;;2.00;;
74291;SDS011;62687;55.738;37.516;2022-08-11T07:58:20;10.05;;;1.70;;
74291;SDS011;62687;55.738;37.516;2022-08-11T08:01:05;78.55;;;8.65;;
74291;SDS011;62687;55.738;37.516;2022-08-11T08:03:49;10.38;;;1.92;;
74291;SDS011;62687;55.738;37.516;2022-08-11T08:06:34;22.92;;;2.42;;
74291;SDS011;62687;55.738;37.516;2022-08-11T08:11:49;13.75;;;1.98;;
74291;SDS011;62687;55.738;37.516;2022-08-11T08:14:32;12.90;;;2.80;;
74291;SDS011;62687;55.738;37.516;2022-08-11T08:17:17;14.43;;;2.08;;
74291;SDS011;62687;55.738;37.516;2022-08-11T08:20:01;8.63;;;1.70;;
74291;SDS011;62687;55.738;37.516;2022-08-11T08:22:28;5.78;;;1.50;;
74291;SDS011;62687;55.738;37.516;2022-08-11T08:24:54;5.18;;;1.55;;
74291;SDS011;62687;55.738;37.516;2022-08-11T08:27:20;2.58;;;1.17;;
74291;SDS011;62687;55.738;37.516;2022-08-11T08:29:46;3.83;;;1.30;;
74291;SDS011;62687;55.738;37.516;2022-08-11T08:32:31;7.05;;;1.38;;
74291;SDS011;62687;55.738;37.516;2022-08-11T08:34:59;7.22;;;1.65;;
74291;SDS011;62687;55.738;37.516;2022-08-11T08:37:25;7.55;;;2.05;;
74291;SDS011;62687;55.738;37.516;2022-08-11T08:39:51;4.13;;;1.33;;
74291;SDS011;62687;55.738;37.516;2022-08-11T08:42:20;5.32;;;1.20;;
74291;SDS011;62687;55.738;37.516;2022-08-11T08:45:04;5.63;;;1.80;;
74291;SDS011;62687;55.738;37.516;2022-08-11T08:47:31;8.43;;;1.48;;
74291;SDS011;62687;55.738;37.516;2022-08-11T08:50:00;5.93;;;1.10;;
74291;SDS011;62687;55.738;37.516;2022-08-11T08:52:27;4.65;;;1.63;;
74291;SDS011;62687;55.738;37.516;2022-08-11T08:54:55;4.63;;;1.65;;
74291;SDS011;62687;55.738;37.516;2022-08-11T08:57:22;5.43;;;1.70;;
74291;SDS011;62687;55.738;37.516;2022-08-11T08:59:48;8.15;;;1.77;;
74291;SDS011;62687;55.738;37.516;2022-08-11T09:04:42;5.90;;;1.67;;
74291;SDS011;62687;55.738;37.516;2022-08-11T09:07:09;5.60;;;1.83;;
74291;SDS011;62687;55.738;37.516;2022-08-11T09:09:39;7.45;;;2.10;;
74291;SDS011;62687;55.738;37.516;2022-08-11T09:12:06;9.52;;;1.92;;
74291;SDS011;62687;55.738;37.516;2022-08-11T09:14:33;6.55;;;1.52;;
74291;SDS011;62687;55.738;37.516;2022-08-11T09:17:18;6.50;;;1.52;;
74291;SDS011;62687;55.738;37.516;2022-08-11T09:19:47;5.45;;;1.50;;
74291;SDS011;62687;55.738;37.516;2022-08-11T09:22:17;2.45;;;1.17;;
74291;SDS011;62687;55.738;37.516;2022-08-11T09:25:01;7.68;;;1.60;;
74291;SDS011;62687;55.738;37.516;2022-08-11T09:27:45;2.60;;;1.40;;
74291;SDS011;62687;55.738;37.516;2022-08-11T09:30:11;4.13;;;1.10;;
74291;SDS011;62687;55.738;37.516;2022-08-11T09:32:37;3.63;;;1.13;;
74291;SDS011;62687;55.738;37.516;2022-08-11T09:35:04;3.85;;;1.60;;
74291;SDS011;62687;55.738;37.516;2022-08-11T09:37:30;6.63;;;1.50;;
74291;SDS011;62687;55.738;37.516;2022-08-11T09:40:15;4.82;;;1.02;;
74291;SDS011;62687;55.738;37.516;2022-08-11T09:42:58;5.90;;;1.80;;
74291;SDS011;62687;55.738;37.516;2022-08-11T09:45:43;4.80;;;1.58;;
74291;SDS011;62687;55.738;37.516;2022-08-11T09:48:10;5.28;;;1.17;;
74291;SDS011;62687;55.738;37.516;2022-08-11T09:50:36;6.38;;;2.03;;
74291;SDS011;62687;55.738;37.516;2022-08-11T09:53:03;9.93;;;2.25;;
74291;SDS011;62687;55.738;37.516;2022-08-11T09:55:31;5.85;;;1.75;;
74291;SDS011;62687;55.738;37.516;2022-08-11T09:57:57;9.95;;;1.70;;
74291;SDS011;62687;55.738;37.516;2022-08-11T10:00:38;5.75;;;1.58;;
74291;SDS011;62687;55.738;37.516;2022-08-11T10:03:08;5.80;;;2.10;;
74291;SDS011;62687;55.738;37.516;2022-08-11T10:05:34;7.57;;;1.58;;
74291;SDS011;62687;55.738;37.516;2022-08-11T10:08:20;7.90;;;1.60;;
74291;SDS011;62687;55.738;37.516;2022-08-11T10:13:18;4.75;;;1.55;;
74291;SDS011;62687;55.738;37.516;2022-08-11T10:15:50;2.95;;;1.60;;
74291;SDS011;62687;55.738;37.516;2022-08-11T10:18:19;2.78;;;1.40;;
74291;SDS011;62687;55.738;37.516;2022-08-11T10:23:34;4.47;;;1.60;;
74291;SDS011;62687;55.738;37.516;2022-08-11T10:26:19;8.68;;;1.58;;
74291;SDS011;62687;55.738;37.516;2022-08-11T10:29:04;3.80;;;1.60;;
74291;SDS011;62687;55.738;37.516;2022-08-11T10:31:52;3.90;;;1.52;;
74291;SDS011;62687;55.738;37.516;2022-08-11T10:34:37;4.97;;;1.75;;
74291;SDS011;62687;55.738;37.516;2022-08-11T10:37:03;4.95;;;1.58;;
74291;SDS011;62687;55.738;37.516;2022-08-11T10:39:29;2.40;;;1.33;;
74291;SDS011;62687;55.738;37.516;2022-08-11T10:41:55;4.47;;;1.95;;
74291;SDS011;62687;55.738;37.516;2022-08-11T10:44:41;4.30;;;1.42;;
74291;SDS011;62687;55.738;37.516;2022-08-11T10:47:07;3.40;;;1.10;;
74291;SDS011;62687;55.738;37.516;2022-08-11T10:49:53;2.88;;;1.10;;
74291;SDS011;62687;55.738;37.516;2022-08-11T10:52:39;5.47;;;1.08;;
74291;SDS011;62687;55.738;37.516;2022-08-11T10:55:23;4.43;;;0.85;;
74291;SDS011;62687;55.738;37.516;2022-08-11T10:58:09;2.13;;;1.00;;
74291;SDS011;62687;55.738;37.516;2022-08-11T11:00:53;1.45;;;0.90;;
74291;SDS011;62687;55.738;37.516;2022-08-11T11:03:23;3.65;;;1.10;;
74291;SDS011;62687;55.738;37.516;2022-08-11T11:05:49;7.78;;;1.50;;
74291;SDS011;62687;55.738;37.516;2022-08-11T11:08:16;6.50;;;1.30;;
74291;SDS011;62687;55.738;37.516;2022-08-11T11:11:03;5.28;;;1.30;;
74291;SDS011;62687;55.738;37.516;2022-08-11T11:13:30;3.15;;;1.30;;
74291;SDS011;62687;55.738;37.516;2022-08-11T11:16:16;2.97;;;1.13;;
74291;SDS011;62687;55.738;37.516;2022-08-11T11:19:08;4.40;;;1.13;;
74291;SDS011;62687;55.738;37.516;2022-08-11T11:21:35;4.75;;;1.20;;
74291;SDS011;62687;55.738;37.516;2022-08-11T11:24:15;3.17;;;2.03;;
74291;SDS011;62687;55.738;37.516;2022-08-11T11:39:34;5.10;;;1.73;;
74291;SDS011;62687;55.738;37.516;2022-08-11T11:42:04;6.40;;;1.55;;
74291;SDS011;62687;55.738;37.516;2022-08-11T11:44:30;6.68;;;1.55;;
74291;SDS011;62687;55.738;37.516;2022-08-11T11:49:23;21.25;;;1.73;;
74291;SDS011;62687;55.738;37.516;2022-08-11T11:51:49;6.32;;;1.33;;
74291;SDS011;62687;55.738;37.516;2022-08-11T11:54:18;4.70;;;1.40;;
74291;SDS011;62687;55.738;37.516;2022-08-11T11:56:45;8.48;;;1.35;;
74291;SDS011;62687;55.738;37.516;2022-08-11T11:59:11;4.05;;;1.30;;
74291;SDS011;62687;55.738;37.516;2022-08-11T12:01:56;7.30;;;1.90;;
74291;SDS011;62687;55.738;37.516;2022-08-11T12:04:21;5.85;;;1.17;;
74291;SDS011;62687;55.738;37.516;2022-08-11T12:09:13;5.28;;;1.40;;
74291;SDS011;62687;55.738;37.516;2022-08-11T12:11:43;6.03;;;1.08;;
74291;SDS011;62687;55.738;37.516;2022-08-11T12:14:27;4.28;;;1.10;;
74291;SDS011;62687;55.738;37.516;2022-08-11T12:16:53;9.10;;;1.30;;
74291;SDS011;62687;55.738;37.516;2022-08-11T12:19:22;5.88;;;1.10;;
74291;SDS011;62687;55.738;37.516;2022-08-11T12:21:48;5.57;;;1.13;;
74291;SDS011;62687;55.738;37.516;2022-08-11T12:24:33;7.40;;;1.20;;
74291;SDS011;62687;55.738;37.516;2022-08-11T12:27:18;3.95;;;1.30;;
74291;SDS011;62687;55.738;37.516;2022-08-11T12:29:57;4.68;;;1.55;;
74291;SDS011;62687;55.738;37.516;2022-08-11T12:32:26;5.47;;;1.40;;
74291;SDS011;62687;55.738;37.516;2022-08-11T12:34:52;8.57;;;1.30;;
74291;SDS011;62687;55.738;37.516;2022-08-11T12:39:45;6.78;;;1.33;;
74291;SDS011;62687;55.738;37.516;2022-08-11T12:42:30;6.00;;;1.90;;
74291;SDS011;62687;55.738;37.516;2022-08-11T12:45:15;4.07;;;1.58;;
74291;SDS011;62687;55.738;37.516;2022-08-11T12:47:58;4.72;;;1.65;;
74291;SDS011;62687;55.738;37.516;2022-08-11T12:50:44;3.92;;;1.13;;
74291;SDS011;62687;55.738;37.516;2022-08-11T12:53:30;5.65;;;1.20;;
74291;SDS011;62687;55.738;37.516;2022-08-11T12:55:57;2.90;;;1.20;;
74291;SDS011;62687;55.738;37.516;2022-08-11T12:58:43;5.05;;;1.10;;
74291;SDS011;62687;55.738;37.516;2022-08-11T13:01:09;4.80;;;1.30;;
74291;SDS011;62687;55.738;37.516;2022-08-11T13:03:53;4.97;;;1.33;;
74291;SDS011;62687;55.738;37.516;2022-08-11T13:06:38;4.20;;;1.08;;
74291;SDS011;62687;55.738;37.516;2022-08-11T13:09:05;7.38;;;1.50;;
74291;SDS011;62687;55.738;37.516;2022-08-11T13:11:31;7.60;;;1.50;;
74291;SDS011;62687;55.738;37.516;2022-08-11T13:14:15;5.32;;;1.77;;
74291;SDS011;62687;55.738;37.516;2022-08-11T13:19:25;5.85;;;1.55;;
74291;SDS011;62687;55.738;37.516;2022-08-11T13:24:16;6.72;;;1.40;;
74291;SDS011;62687;55.738;37.516;2022-08-11T13:26:43;4.50;;;1.20;;
74291;SDS011;62687;55.738;37.516;2022-08-11T13:29:10;4.53;;;1.35;;
74291;SDS011;62687;55.738;37.516;2022-08-11T13:31:36;7.18;;;1.92;;
74291;SDS011;62687;55.738;37.516;2022-08-11T13:36:27;4.90;;;1.75;;
74291;SDS011;62687;55.738;37.516;2022-08-11T13:38:54;3.85;;;1.55;;
74291;SDS011;62687;55.738;37.516;2022-08-11T13:41:20;5.65;;;1.63;;
74291;SDS011;62687;55.738;37.516;2022-08-11T13:44:06;7.13;;;1.60;;
74291;SDS011;62687;55.738;37.516;2022-08-11T13:46:32;7.18;;;1.30;;
74291;SDS011;62687;55.738;37.516;2022-08-11T13:51:23;5.90;;;1.30;;
74291;SDS011;62687;55.738;37.516;2022-08-11T13:53:56;7.30;;;1.58;;
74291;SDS011;62687;55.738;37.516;2022-08-11T13:56:22;7.05;;;2.03;;
74291;SDS011;62687;55.738;37.516;2022-08-11T14:01:14;6.63;;;1.77;;
74291;SDS011;62687;55.738;37.516;2022-08-11T14:03:39;6.13;;;1.38;;
74291;SDS011;62687;55.738;37.516;2022-08-11T14:06:06;9.13;;;1.42;;
74291;SDS011;62687;55.738;37.516;2022-08-11T14:08:34;11.52;;;3.72;;
74291;SDS011;62687;55.738;37.516;2022-08-11T14:11:02;7.47;;;2.10;;
74291;SDS011;62687;55.738;37.516;2022-08-11T14:13:47;7.65;;;1.60;;
74291;SDS011;62687;55.738;37.516;2022-08-11T14:16:26;4.13;;;1.75;;
74291;SDS011;62687;55.738;37.516;2022-08-11T14:18:54;5.15;;;1.65;;
74291;SDS011;62687;55.738;37.516;2022-08-11T14:21:22;6.32;;;1.45;;
74291;SDS011;62687;55.738;37.516;2022-08-11T14:24:06;5.38;;;1.25;;
74291;SDS011;62687;55.738;37.516;2022-08-11T14:29:13;7.05;;;1.40;;
74291;SDS011;62687;55.738;37.516;2022-08-11T14:31:39;8.57;;;1.67;;
74291;SDS011;62687;55.738;37.516;2022-08-11T14:34:08;12.43;;;2.00;;
74291;SDS011;62687;55.738;37.516;2022-08-11T14:36:46;5.88;;;1.35;;
74291;SDS011;62687;55.738;37.516;2022-08-11T14:39:16;7.10;;;1.80;;
74291;SDS011;62687;55.738;37.516;2022-08-11T14:41:43;7.13;;;1.40;;
74291;SDS011;62687;55.738;37.516;2022-08-11T14:44:27;6.07;;;1.98;;
74291;SDS011;62687;55.738;37.516;2022-08-11T14:47:12;5.50;;;1.70;;
74291;SDS011;62687;55.738;37.516;2022-08-11T14:49:41;6.78;;;1.20;;
74291;SDS011;62687;55.738;37.516;2022-08-11T14:52:12;9.40;;;1.50;;
74291;SDS011;62687;55.738;37.516;2022-08-11T14:54:41;6.57;;;2.00;;
74291;SDS011;62687;55.738;37.516;2022-08-11T14:57:26;5.30;;;1.52;;
74291;SDS011;62687;55.738;37.516;2022-08-11T14:59:52;3.38;;;1.80;;
74291;SDS011;62687;55.738;37.516;2022-08-11T15:02:19;5.50;;;1.40;;
74291;SDS011;62687;55.738;37.516;2022-08-11T15:07:29;3.47;;;1.25;;
74291;SDS011;62687;55.738;37.516;2022-08-11T15:10:00;3.85;;;1.42;;
74291;SDS011;62687;55.738;37.516;2022-08-11T15:12:26;2.90;;;1.40;;
74291;SDS011;62687;55.738;37.516;2022-08-11T15:14:53;7.90;;;1.55;;
74291;SDS011;62687;55.738;37.516;2022-08-11T15:17:38;10.02;;;2.00;;
74291;SDS011;62687;55.738;37.516;2022-08-11T15:20:09;10.88;;;2.88;;
74291;SDS011;62687;55.738;37.516;2022-08-11T15:22:53;7.75;;;2.22;;
74291;SDS011;62687;55.738;37.516;2022-08-11T15:25:38;8.80;;;2.28;;
74291;SDS011;62687;55.738;37.516;2022-08-11T15:28:06;2.75;;;1.67;;
74291;SDS011;62687;55.738;37.516;2022-08-11T15:30:52;4.75;;;2.15;;
74291;SDS011;62687;55.738;37.516;2022-08-11T15:33:37;6.45;;;1.70;;
74291;SDS011;62687;55.738;37.516;2022-08-11T15:36:22;3.90;;;1.35;;
74291;SDS011;62687;55.738;37.516;2022-08-11T15:39:08;8.07;;;4.95;;
74291;SDS011;62687;55.738;37.516;2022-08-11T15:42:12;22.90;;;12.05;;
74291;SDS011;62687;55.738;37.516;2022-08-11T15:44:50;19.08;;;9.90;;
74291;SDS011;62687;55.738;37.516;2022-08-11T15:47:40;6.82;;;1.92;;
74291;SDS011;62687;55.738;37.516;2022-08-11T15:50:06;14.10;;;4.70;;
74291;SDS011;62687;55.738;37.516;2022-08-11T15:52:34;14.10;;;6.90;;
74291;SDS011;62687;55.738;37.516;2022-08-11T15:55:06;16.00;;;5.93;;
74291;SDS011;62687;55.738;37.516;2022-08-11T15:57:32;9.93;;;3.03;;
74291;SDS011;62687;55.738;37.516;2022-08-11T16:00:16;10.93;;;2.30;;
74291;SDS011;62687;55.738;37.516;2022-08-11T16:03:01;10.45;;;2.55;;
74291;SDS011;62687;55.738;37.516;2022-08-11T16:05:46;5.18;;;2.20;;
74291;SDS011;62687;55.738;37.516;2022-08-11T16:08:14;7.68;;;2.17;;
74291;SDS011;62687;55.738;37.516;2022-08-11T16:10:41;6.28;;;2.00;;
74291;SDS011;62687;55.738;37.516;2022-08-11T16:13:07;7.10;;;1.90;;
74291;SDS011;62687;55.738;37.516;2022-08-11T16:15:34;7.40;;;1.88;;
74291;SDS011;62687;55.738;37.516;2022-08-11T16:18:21;8.10;;;2.40;;
74291;SDS011;62687;55.738;37.516;2022-08-11T16:20:49;5.82;;;2.72;;
74291;SDS011;62687;55.738;37.516;2022-08-11T16:23:16;8.75;;;1.98;;
74291;SDS011;62687;55.738;37.516;2022-08-11T16:25:42;7.95;;;2.85;;
74291;SDS011;62687;55.738;37.516;2022-08-11T16:28:09;9.65;;;2.40;;
74291;SDS011;62687;55.738;37.516;2022-08-11T16:30:38;8.20;;;2.10;;
74291;SDS011;62687;55.738;37.516;2022-08-11T16:33:03;12.50;;;2.80;;
74291;SDS011;62687;55.738;37.516;2022-08-11T16:35:31;8.10;;;2.20;;
74291;SDS011;62687;55.738;37.516;2022-08-11T16:38:15;9.00;;;2.42;;
74291;SDS011;62687;55.738;37.516;2022-08-11T16:41:10;10.43;;;2.80;;
74291;SDS011;62687;55.738;37.516;2022-08-11T16:43:40;10.90;;;2.55;;
74291;SDS011;62687;55.738;37.516;2022-08-11T16:46:26;10.27;;;2.42;;
74291;SDS011;62687;55.738;37.516;2022-08-11T16:51:36;9.68;;;2.15;;
74291;SDS011;62687;55.738;37.516;2022-08-11T16:54:02;6.32;;;2.30;;
74291;SDS011;62687;55.738;37.516;2022-08-11T16:58:54;6.55;;;3.05;;
74291;SDS011;62687;55.738;37.516;2022-08-11T17:01:50;9.18;;;2.60;;
74291;SDS011;62687;55.738;37.516;2022-08-11T17:07:01;9.77;;;2.67;;
74291;SDS011;62687;55.738;37.516;2022-08-11T17:09:46;11.88;;;2.35;;
74291;SDS011;62687;55.738;37.516;2022-08-11T17:12:32;14.88;;;2.50;;
74291;SDS011;62687;55.738;37.516;2022-08-11T17:15:17;11.73;;;2.35;;
74291;SDS011;62687;55.738;37.516;2022-08-11T17:18:02;8.68;;;2.25;;
74291;SDS011;62687;55.738;37.516;2022-08-11T17:20:29;9.38;;;2.92;;
74291;SDS011;62687;55.738;37.516;2022-08-11T17:22:55;7.45;;;2.33;;
74291;SDS011;62687;55.738;37.516;2022-08-11T17:28:05;18.00;;;3.13;;
74291;SDS011;62687;55.738;37.516;2022-08-11T17:30:31;12.90;;;2.83;;
74291;SDS011;62687;55.738;37.516;2022-08-11T17:33:17;12.18;;;3.03;;
74291;SDS011;62687;55.738;37.516;2022-08-11T17:36:01;16.85;;;3.25;;
74291;SDS011;62687;55.738;37.516;2022-08-11T17:38:27;11.00;;;3.60;;
74291;SDS011;62687;55.738;37.516;2022-08-11T17:43:37;16.42;;;2.97;;
74291;SDS011;62687;55.738;37.516;2022-08-11T17:46:22;16.10;;;3.08;;
74291;SDS011;62687;55.738;37.516;2022-08-11T17:51:33;12.45;;;2.22;;
74291;SDS011;62687;55.738;37.516;2022-08-11T17:54:17;13.77;;;2.92;;
74291;SDS011;62687;55.738;37.516;2022-08-11T17:59:46;8.43;;;3.08;;
74291;SDS011;62687;55.738;37.516;2022-08-11T18:02:21;12.30;;;2.92;;
74291;SDS011;62687;55.738;37.516;2022-08-11T18:05:06;6.72;;;2.20;;
74291;SDS011;62687;55.738;37.516;2022-08-11T18:07:33;11.80;;;3.70;;
74291;SDS011;62687;55.738;37.516;2022-08-11T18:10:18;7.72;;;2.75;;
74291;SDS011;62687;55.738;37.516;2022-08-11T18:13:03;11.50;;;3.20;;
74291;SDS011;62687;55.738;37.516;2022-08-11T18:15:48;10.20;;;3.78;;
74291;SDS011;62687;55.738;37.516;2022-08-11T18:18:33;11.27;;;3.25;;
74291;SDS011;62687;55.738;37.516;2022-08-11T18:21:17;9.38;;;3.22;;
74291;SDS011;62687;55.738;37.516;2022-08-11T18:24:04;13.13;;;2.70;;
74291;SDS011;62687;55.738;37.516;2022-08-11T18:26:50;12.18;;;4.43;;
74291;SDS011;62687;55.738;37.516;2022-08-11T18:29:36;8.40;;;2.42;;
74291;SDS011;62687;55.738;37.516;2022-08-11T18:32:21;9.90;;;3.20;;
74291;SDS011;62687;55.738;37.516;2022-08-11T18:37:50;10.43;;;3.00;;
74291;SDS011;62687;55.738;37.516;2022-08-11T18:43:20;9.10;;;3.05;;
74291;SDS011;62687;55.738;37.516;2022-08-11T18:46:05;10.15;;;2.60;;
74291;SDS011;62687;55.738;37.516;2022-08-11T18:49:37;10.63;;;3.58;;
74291;SDS011;62687;55.738;37.516;2022-08-11T18:51:54;13.57;;;3.03;;
74291;SDS011;62687;55.738;37.516;2022-08-11T18:54:40;12.63;;;3.13;;
74291;SDS011;62687;55.738;37.516;2022-08-11T18:57:24;11.52;;;3.50;;
74291;SDS011;62687;55.738;37.516;2022-08-11T19:00:09;11.00;;;2.50;;
74291;SDS011;62687;55.738;37.516;2022-08-11T19:02:53;11.80;;;3.20;;
74291;SDS011;62687;55.738;37.516;2022-08-11T19:05:38;7.13;;;3.22;;
74291;SDS011;62687;55.738;37.516;2022-08-11T19:08:28;12.15;;;2.95;;
74291;SDS011;62687;55.738;37.516;2022-08-11T19:11:13;10.15;;;3.10;;
74291;SDS011;62687;55.738;37.516;2022-08-11T19:13:59;10.88;;;3.28;;
74291;SDS011;62687;55.738;37.516;2022-08-11T19:16:43;17.02;;;3.17;;
74291;SDS011;62687;55.738;37.516;2022-08-11T19:19:28;9.50;;;2.83;;
74291;SDS011;62687;55.738;37.516;2022-08-11T19:22:13;8.18;;;3.30;;
74291;SDS011;62687;55.738;37.516;2022-08-11T19:24:59;7.03;;;3.08;;
74291;SDS011;62687;55.738;37.516;2022-08-11T19:30:28;13.75;;;2.85;;
74291;SDS011;62687;55.738;37.516;2022-08-11T19:33:12;11.50;;;2.90;;
74291;SDS011;62687;55.738;37.516;2022-08-11T19:35:57;8.88;;;3.08;;
74291;SDS011;62687;55.738;37.516;2022-08-11T19:38:41;10.75;;;2.97;;
74291;SDS011;62687;55.738;37.516;2022-08-11T19:41:26;10.65;;;3.15;;
74291;SDS011;62687;55.738;37.516;2022-08-11T19:44:11;11.23;;;3.47;;
74291;SDS011;62687;55.738;37.516;2022-08-11T19:46:56;16.25;;;4.22;;
74291;SDS011;62687;55.738;37.516;2022-08-11T19:49:41;11.90;;;3.40;;
74291;SDS011;62687;55.738;37.516;2022-08-11T19:52:27;7.63;;;2.70;;
74291;SDS011;62687;55.738;37.516;2022-08-11T19:55:12;10.30;;;2.85;;